createdAt,value
2019-02-24T00:00:16.679Z,3.20
2019-02-24T00:02:46.504Z,3.10
2019-02-24T00:05:16.341Z,3.00
2019-02-24T00:07:46.852Z,2.90
2019-02-24T00:10:16.647Z,2.90
2019-02-24T00:12:46.500Z,2.90
2019-02-24T00:15:16.309Z,3.00
2019-02-24T00:17:46.354Z,2.90
2019-02-24T00:20:15.851Z,2.90
2019-02-24T00:22:46.155Z,2.70
2019-02-24T00:25:15.795Z,2.70
2019-02-24T00:27:45.631Z,2.70
2019-02-24T00:30:15.692Z,2.60
2019-02-24T00:32:46.185Z,2.70
2019-02-24T00:35:15.797Z,2.70
2019-02-24T00:37:45.642Z,2.70
2019-02-24T00:40:15.752Z,2.70
2019-02-24T00:42:45.918Z,2.70
2019-02-24T00:45:15.631Z,2.70
2019-02-24T00:47:46.072Z,2.70
2019-02-24T00:50:15.960Z,2.70
2019-02-24T00:52:46.246Z,2.60
2019-02-24T00:55:15.946Z,2.60
2019-02-24T00:57:45.699Z,2.60
2019-02-24T01:00:16.162Z,2.60
2019-02-24T01:02:48.021Z,2.60
2019-02-24T01:05:17.621Z,2.60
2019-02-24T01:07:47.667Z,2.50
2019-02-24T01:10:17.555Z,2.50
2019-02-24T01:12:47.961Z,2.40
2019-02-24T01:15:17.622Z,2.30
2019-02-24T01:17:47.862Z,2.30
2019-02-24T01:20:17.711Z,2.30
2019-02-24T01:22:48.011Z,2.30
2019-02-24T01:25:17.793Z,2.20
2019-02-24T01:27:47.380Z,2.30
2019-02-24T01:30:17.411Z,2.30
2019-02-24T01:32:47.002Z,2.30
2019-02-24T01:35:16.649Z,2.40
2019-02-24T01:37:46.330Z,2.40
2019-02-24T01:40:15.931Z,2.50
2019-02-24T01:42:45.616Z,2.50
2019-02-24T01:45:15.341Z,2.40
2019-02-24T01:47:44.933Z,2.40
2019-02-24T01:50:14.770Z,2.40
2019-02-24T01:52:44.377Z,2.50
2019-02-24T01:55:14.142Z,2.40
2019-02-24T01:57:43.701Z,2.40
2019-02-24T02:00:13.472Z,2.30
2019-02-24T02:02:43.264Z,2.30
2019-02-24T02:05:13.047Z,2.30
2019-02-24T02:07:42.549Z,2.30
2019-02-24T02:10:12.573Z,2.20
2019-02-24T02:12:42.163Z,2.20
2019-02-24T02:15:13.458Z,2.20
2019-02-24T02:17:43.402Z,2.20
2019-02-24T02:20:13.301Z,2.20
2019-02-24T02:22:42.887Z,2.20
2019-02-24T02:25:12.555Z,2.20
2019-02-24T02:27:42.141Z,2.10
2019-02-24T02:30:12.626Z,2.10
2019-02-24T02:32:43.344Z,2.00
2019-02-24T02:35:12.836Z,1.90
2019-02-24T02:37:42.508Z,1.90
2019-02-24T02:40:12.204Z,1.80
2019-02-24T02:42:42.044Z,1.80
2019-02-24T02:45:11.713Z,1.80
2019-02-24T02:47:41.570Z,1.80
2019-02-24T02:50:11.583Z,1.70
2019-02-24T02:52:41.300Z,1.70
2019-02-24T02:55:10.944Z,1.70
2019-02-24T02:57:40.779Z,1.70
2019-02-24T03:00:35.118Z,1.70
2019-02-24T03:03:05.076Z,1.70
2019-02-24T03:05:34.937Z,1.80
2019-02-24T03:08:12.003Z,1.80
2019-02-24T03:10:41.644Z,1.90
2019-02-24T03:13:11.478Z,1.80
2019-02-24T03:15:41.151Z,1.80
2019-02-24T03:18:11.175Z,1.70
2019-02-24T03:20:40.885Z,1.80
2019-02-24T03:23:10.588Z,1.70
2019-02-24T03:25:40.389Z,1.70
2019-02-24T03:28:10.433Z,1.70
2019-02-24T03:30:40.291Z,1.70
2019-02-24T03:33:09.859Z,1.80
2019-02-24T03:35:39.715Z,1.80
2019-02-24T03:38:10.341Z,1.80
2019-02-24T03:40:40.109Z,1.80
2019-02-24T03:43:09.963Z,1.90
2019-02-24T03:45:39.512Z,1.90
2019-02-24T03:48:09.116Z,1.80
2019-02-24T03:50:38.685Z,1.90
2019-02-24T03:53:08.511Z,1.90
2019-02-24T03:55:38.264Z,1.80
2019-02-24T03:58:07.886Z,1.80
2019-02-24T04:00:37.540Z,1.70
2019-02-24T04:03:07.250Z,1.70
2019-02-24T04:05:36.801Z,1.70
2019-02-24T04:08:06.662Z,1.70
2019-02-24T04:10:36.500Z,1.70
2019-02-24T04:13:06.104Z,1.60
2019-02-24T04:15:35.785Z,1.60
2019-02-24T04:18:05.496Z,1.50
2019-02-24T04:20:35.225Z,1.60
2019-02-24T04:23:06.514Z,1.50
2019-02-24T04:25:36.167Z,1.50
2019-02-24T04:28:05.915Z,1.50
2019-02-24T04:30:35.599Z,1.50
2019-02-24T04:33:05.684Z,1.40
2019-02-24T04:35:35.576Z,1.40
2019-02-24T04:38:05.211Z,1.40
2019-02-24T04:40:34.920Z,1.30
2019-02-24T04:43:04.503Z,1.40
2019-02-24T04:45:34.125Z,1.40
2019-02-24T04:48:03.964Z,1.50
2019-02-24T04:50:33.805Z,1.50
2019-02-24T04:53:03.530Z,1.40
2019-02-24T04:55:33.362Z,1.50
2019-02-24T04:58:02.955Z,1.30
2019-02-24T05:00:32.590Z,1.20
2019-02-24T05:03:02.214Z,1.20
2019-02-24T05:05:31.797Z,1.30
2019-02-24T05:08:01.593Z,1.40
2019-02-24T05:10:31.485Z,1.30
2019-02-24T05:13:01.084Z,1.20
2019-02-24T05:15:30.847Z,1.10
2019-02-24T05:18:00.558Z,1.20
2019-02-24T05:20:30.225Z,1.10
2019-02-24T05:22:59.907Z,1.10
2019-02-24T05:25:29.554Z,1.10
2019-02-24T05:27:59.341Z,1.10
2019-02-24T05:30:29.075Z,1.20
2019-02-24T05:32:58.771Z,1.20
2019-02-24T05:35:28.326Z,1.20
2019-02-24T05:37:57.859Z,1.10
2019-02-24T05:40:27.344Z,1.10
2019-02-24T05:42:57.159Z,1.10
2019-02-24T05:45:26.725Z,1.10
2019-02-24T05:47:56.366Z,1.10
2019-02-24T05:50:25.988Z,1.20
2019-02-24T05:52:55.485Z,1.20
2019-02-24T05:55:25.198Z,1.20
2019-02-24T05:57:54.879Z,1.20
2019-02-24T06:00:24.494Z,1.10
2019-02-24T06:02:54.157Z,1.10
2019-02-24T06:05:23.669Z,1.10
2019-02-24T06:07:53.314Z,1.20
2019-02-24T06:10:22.908Z,1.20
2019-02-24T06:12:52.661Z,1.30
2019-02-24T06:15:22.218Z,1.20
2019-02-24T06:17:51.748Z,1.10
2019-02-24T06:20:21.304Z,1.20
2019-02-24T06:22:50.970Z,1.20
2019-02-24T06:25:21.067Z,1.20
2019-02-24T06:27:50.719Z,1.20
2019-02-24T06:30:20.339Z,1.20
2019-02-24T06:32:49.966Z,1.10
2019-02-24T06:35:19.568Z,1.20
2019-02-24T06:37:49.197Z,1.20
2019-02-24T06:40:19.063Z,1.30
2019-02-24T06:42:48.664Z,1.30
2019-02-24T06:45:18.411Z,1.30
2019-02-24T06:47:48.062Z,1.20
2019-02-24T06:50:17.848Z,1.20
2019-02-24T06:52:47.459Z,1.20
2019-02-24T06:55:17.254Z,1.20
2019-02-24T06:57:46.904Z,1.20
2019-02-24T07:00:16.934Z,1.30
2019-02-24T07:02:46.474Z,1.30
2019-02-24T07:05:16.231Z,1.40
2019-02-24T07:07:45.899Z,1.40
2019-02-24T07:10:15.949Z,1.50
2019-02-24T07:12:45.660Z,1.50
2019-02-24T07:15:15.420Z,1.60
2019-02-24T07:17:45.082Z,1.60
2019-02-24T07:20:15.677Z,1.70
2019-02-24T07:22:45.527Z,1.70
2019-02-24T07:25:16.430Z,1.80
2019-02-24T07:27:46.024Z,1.80
2019-02-24T07:30:23.141Z,1.80
2019-02-24T07:32:47.442Z,1.80
2019-02-24T07:35:17.134Z,1.80
2019-02-24T07:37:46.748Z,1.80
2019-02-24T07:40:16.640Z,1.70
2019-02-24T07:42:46.318Z,1.70
2019-02-24T07:45:15.853Z,1.80
2019-02-24T07:47:45.789Z,1.90
2019-02-24T07:50:15.400Z,2.00
2019-02-24T07:52:45.283Z,2.10
2019-02-24T07:55:14.776Z,2.10
2019-02-24T07:57:44.818Z,2.20
2019-02-24T08:00:14.526Z,2.30
2019-02-24T08:02:44.265Z,2.40
2019-02-24T08:05:14.039Z,2.50
2019-02-24T08:07:43.738Z,2.60
2019-02-24T08:10:13.488Z,2.70
2019-02-24T08:12:43.044Z,2.80
2019-02-24T08:15:12.846Z,3.00
2019-02-24T08:17:42.442Z,3.10
2019-02-24T08:20:12.143Z,3.20
2019-02-24T08:22:41.832Z,3.30
2019-02-24T08:25:11.658Z,3.30
2019-02-24T08:27:41.322Z,3.30
2019-02-24T08:30:13.143Z,3.40
2019-02-24T08:32:42.728Z,3.40
2019-02-24T08:35:12.561Z,3.50
2019-02-24T08:37:42.227Z,3.50
2019-02-24T08:40:11.957Z,3.60
2019-02-24T08:42:41.580Z,3.60
2019-02-24T08:45:11.596Z,3.60
2019-02-24T08:47:41.172Z,3.70
2019-02-24T08:50:11.983Z,3.80
2019-02-24T08:52:41.955Z,3.80
2019-02-24T08:55:11.681Z,4.00
2019-02-24T08:57:41.330Z,4.20
2019-02-24T09:00:14.995Z,4.20
2019-02-24T09:02:44.736Z,4.30
2019-02-24T09:05:14.342Z,4.50
2019-02-24T09:07:43.887Z,4.50
2019-02-24T09:10:13.678Z,4.60
2019-02-24T09:12:43.763Z,4.60
2019-02-24T09:15:14.989Z,4.70
2019-02-24T09:17:44.788Z,4.80
2019-02-24T09:20:15.399Z,5.00
2019-02-24T09:22:45.634Z,5.20
2019-02-24T09:25:15.491Z,5.30
2019-02-24T09:27:45.013Z,5.30
2019-02-24T09:30:15.235Z,5.30
2019-02-24T09:32:45.032Z,5.40
2019-02-24T09:35:14.720Z,5.60
2019-02-24T09:38:03.667Z,5.60
2019-02-24T09:40:33.668Z,5.70
2019-02-24T09:43:03.312Z,6.00
2019-02-24T09:45:32.974Z,6.10
2019-02-24T09:48:02.941Z,6.20
2019-02-24T09:50:32.400Z,6.20
2019-02-24T09:53:02.345Z,6.30
2019-02-24T09:55:31.920Z,6.30
2019-02-24T09:58:01.631Z,6.40
2019-02-24T10:00:31.329Z,6.60
2019-02-24T10:03:00.995Z,6.70
2019-02-24T10:05:31.192Z,6.70
2019-02-24T10:08:00.892Z,6.80
2019-02-24T10:10:30.623Z,7.00
2019-02-24T10:13:00.354Z,6.90
2019-02-24T10:15:30.355Z,7.20
2019-02-24T10:17:59.988Z,7.30
2019-02-24T10:20:30.001Z,7.40
2019-02-24T10:22:59.720Z,7.50
2019-02-24T10:25:29.528Z,7.70
2019-02-24T10:27:59.296Z,7.90
2019-02-24T10:30:29.392Z,8.00
2019-02-24T10:32:59.201Z,8.10
2019-02-24T10:35:29.503Z,8.10
2019-02-24T10:37:59.537Z,8.30
2019-02-24T10:40:29.291Z,8.30
2019-02-24T10:42:59.367Z,8.40
2019-02-24T10:45:30.753Z,8.40
2019-02-24T10:48:00.790Z,8.60
2019-02-24T10:50:31.684Z,8.60
2019-02-24T10:53:01.512Z,8.60
2019-02-24T10:55:31.605Z,8.80
2019-02-24T10:58:01.650Z,9.00
2019-02-24T11:00:31.960Z,8.90
2019-02-24T11:03:01.812Z,9.20
2019-02-24T11:05:31.705Z,9.30
2019-02-24T11:08:01.705Z,9.40
2019-02-24T11:10:31.498Z,9.50
2019-02-24T11:13:01.125Z,9.60
2019-02-24T11:15:32.964Z,9.70
2019-02-24T11:18:02.970Z,9.70
2019-02-24T11:20:32.836Z,9.90
2019-02-24T11:23:02.866Z,10.00
2019-02-24T11:25:32.668Z,10.10
2019-02-24T11:28:02.891Z,10.20
2019-02-24T11:30:32.711Z,10.10
2019-02-24T11:33:02.652Z,10.20
2019-02-24T11:35:32.997Z,10.40
2019-02-24T11:38:02.908Z,10.50
2019-02-24T11:40:32.900Z,10.60
2019-02-24T11:43:02.731Z,10.70
2019-02-24T11:45:32.678Z,10.80
2019-02-24T11:48:02.451Z,11.00
2019-02-24T11:50:32.085Z,11.00
2019-02-24T11:53:01.939Z,11.10
2019-02-24T11:55:31.736Z,11.10
2019-02-24T11:58:01.461Z,11.20
2019-02-24T12:00:31.080Z,11.10
2019-02-24T12:03:00.921Z,11.10
2019-02-24T12:05:30.613Z,11.20
2019-02-24T12:08:00.271Z,11.30
2019-02-24T12:10:29.850Z,11.30
2019-02-24T12:12:59.605Z,11.40
2019-02-24T12:15:29.288Z,11.60
2019-02-24T12:17:59.040Z,11.60
2019-02-24T12:20:28.622Z,11.50
2019-02-24T12:22:58.540Z,11.60
2019-02-24T12:25:28.131Z,11.70
2019-02-24T12:27:57.796Z,11.80
2019-02-24T12:30:27.530Z,11.90
2019-02-24T12:32:57.497Z,11.80
2019-02-24T12:35:27.131Z,11.90
2019-02-24T12:37:56.888Z,12.10
2019-02-24T12:40:26.518Z,12.20
2019-02-24T12:42:56.098Z,12.10
2019-02-24T12:45:25.732Z,12.20
2019-02-24T12:47:55.497Z,12.20
2019-02-24T12:50:25.151Z,12.10
2019-02-24T12:52:54.831Z,12.10
2019-02-24T12:55:24.512Z,12.30
2019-02-24T12:57:54.073Z,12.40
2019-02-24T13:00:26.432Z,12.30
2019-02-24T13:02:56.156Z,12.30
2019-02-24T13:05:25.907Z,12.50
2019-02-24T13:07:55.487Z,12.60
2019-02-24T13:10:25.263Z,12.50
2019-02-24T13:12:54.904Z,12.60
2019-02-24T13:15:24.504Z,12.70
2019-02-24T13:17:54.424Z,12.80
2019-02-24T13:20:24.125Z,12.80
2019-02-24T13:22:53.793Z,12.80
2019-02-24T13:25:23.833Z,12.90
2019-02-24T13:27:53.785Z,12.90
2019-02-24T13:30:23.511Z,12.70
2019-02-24T13:32:53.316Z,12.90
2019-02-24T13:35:22.865Z,13.10
2019-02-24T13:37:52.611Z,13.00
2019-02-24T13:40:22.222Z,13.00
2019-02-24T13:42:52.034Z,13.20
2019-02-24T13:45:23.138Z,13.30
2019-02-24T13:47:52.838Z,13.50
2019-02-24T13:50:22.499Z,13.30
2019-02-24T13:52:52.057Z,13.30
2019-02-24T13:55:21.783Z,13.20
2019-02-24T13:57:51.540Z,13.20
2019-02-24T14:00:22.355Z,13.10
2019-02-24T14:02:52.105Z,13.20
2019-02-24T14:05:22.218Z,13.30
2019-02-24T14:07:52.020Z,13.30
2019-02-24T14:10:21.626Z,13.20
2019-02-24T14:12:51.448Z,13.20
2019-02-24T14:15:21.162Z,13.10
2019-02-24T14:17:50.904Z,13.10
2019-02-24T14:20:21.003Z,13.30
2019-02-24T14:22:50.701Z,13.20
2019-02-24T14:25:20.456Z,13.30
2019-02-24T14:27:50.139Z,13.40
2019-02-24T14:30:20.354Z,13.30
2019-02-24T14:32:50.608Z,13.40
2019-02-24T14:35:27.539Z,13.40
2019-02-24T14:37:57.334Z,13.40
2019-02-24T14:40:26.964Z,13.10
2019-02-24T14:42:56.721Z,13.00
2019-02-24T14:45:26.447Z,12.90
2019-02-24T14:47:56.235Z,13.20
2019-02-24T14:50:25.753Z,13.20
2019-02-24T14:52:55.544Z,13.20
2019-02-24T14:55:25.347Z,13.30
2019-02-24T14:57:55.143Z,13.30
2019-02-24T15:00:25.260Z,13.40
2019-02-24T15:02:54.890Z,13.40
2019-02-24T15:05:24.550Z,13.30
2019-02-24T15:07:54.380Z,13.30
2019-02-24T15:10:26.274Z,13.40
2019-02-24T15:12:56.080Z,13.40
2019-02-24T15:15:33.523Z,13.30
2019-02-24T15:18:03.369Z,13.30
2019-02-24T15:20:33.075Z,13.20
2019-02-24T15:23:02.591Z,13.30
2019-02-24T15:25:32.365Z,13.10
2019-02-24T15:28:02.391Z,13.00
2019-02-24T15:30:34.640Z,13.20
2019-02-24T15:33:04.497Z,13.20
2019-02-24T15:35:34.206Z,13.20
2019-02-24T15:38:03.909Z,13.10
2019-02-24T15:40:33.694Z,12.90
2019-02-24T15:43:03.440Z,12.70
2019-02-24T15:45:33.266Z,12.90
2019-02-24T15:48:03.857Z,12.80
2019-02-24T15:50:33.519Z,12.90
2019-02-24T15:53:05.130Z,12.80
2019-02-24T15:55:34.899Z,12.60
2019-02-24T15:58:04.830Z,12.60
2019-02-24T16:00:34.855Z,12.60
2019-02-24T16:03:04.519Z,12.60
2019-02-24T16:05:34.182Z,12.70
2019-02-24T16:08:03.789Z,12.70
2019-02-24T16:10:33.369Z,12.50
2019-02-24T16:13:03.142Z,12.40
2019-02-24T16:15:33.085Z,12.50
2019-02-24T16:18:02.747Z,12.40
2019-02-24T16:20:35.735Z,12.40
2019-02-24T16:23:06.457Z,12.30
2019-02-24T16:25:36.744Z,12.30
2019-02-24T16:28:06.451Z,12.30
2019-02-24T16:30:36.205Z,12.10
2019-02-24T16:33:10.619Z,11.80
2019-02-24T16:35:37.599Z,11.80
2019-02-24T16:38:07.309Z,12.00
2019-02-24T16:40:36.948Z,11.70
2019-02-24T16:43:06.733Z,11.60
2019-02-24T16:45:36.784Z,11.40
2019-02-24T16:48:06.575Z,10.90
2019-02-24T16:50:36.195Z,10.60
2019-02-24T16:53:05.947Z,10.30
2019-02-24T16:55:35.511Z,10.00
2019-02-24T16:58:05.518Z,9.90
2019-02-24T17:00:35.174Z,9.80
2019-02-24T17:03:04.809Z,9.50
2019-02-24T17:05:34.609Z,9.30
2019-02-24T17:08:04.651Z,9.30
2019-02-24T17:10:34.606Z,9.20
2019-02-24T17:13:04.648Z,9.00
2019-02-24T17:15:34.365Z,8.90
2019-02-24T17:18:04.100Z,8.90
2019-02-24T17:20:33.812Z,8.80
2019-02-24T17:23:04.018Z,8.60
2019-02-24T17:25:34.074Z,8.50
2019-02-24T17:28:03.890Z,8.40
2019-02-24T17:30:33.539Z,8.40
2019-02-24T17:33:03.534Z,8.30
2019-02-24T17:35:33.153Z,8.30
2019-02-24T17:38:03.013Z,8.30
2019-02-24T17:40:32.937Z,8.30
2019-02-24T17:43:04.514Z,8.30
2019-02-24T17:45:34.263Z,8.20
2019-02-24T17:48:04.786Z,8.10
2019-02-24T17:50:34.636Z,8.00
2019-02-24T17:53:04.659Z,7.90
2019-02-24T17:55:34.468Z,7.80
2019-02-24T17:58:05.166Z,7.80
2019-02-24T18:00:36.514Z,7.80
2019-02-24T18:03:06.252Z,7.70
2019-02-24T18:05:36.071Z,7.70
2019-02-24T18:08:06.031Z,7.60
2019-02-24T18:10:35.737Z,7.60
2019-02-24T18:13:05.530Z,7.40
2019-02-24T18:15:35.363Z,7.30
2019-02-24T18:18:05.170Z,7.30
2019-02-24T18:20:34.994Z,7.20
2019-02-24T18:23:04.692Z,7.20
2019-02-24T18:25:34.395Z,7.20
2019-02-24T18:28:04.147Z,7.10
2019-02-24T18:30:34.334Z,7.10
2019-02-24T18:33:04.145Z,7.10
2019-02-24T18:35:34.109Z,7.10
2019-02-24T18:38:03.905Z,7.00
2019-02-24T18:40:33.818Z,7.00
2019-02-24T18:43:03.552Z,6.90
2019-02-24T18:45:33.342Z,6.80
2019-02-24T18:48:03.303Z,6.80
2019-02-24T18:50:32.937Z,6.80
2019-02-24T18:53:02.864Z,6.70
2019-02-24T18:55:32.494Z,6.60
2019-02-24T18:58:02.537Z,6.60
2019-02-24T19:00:32.708Z,6.50
2019-02-24T19:03:02.549Z,6.50
2019-02-24T19:05:32.104Z,6.50
2019-02-24T19:08:02.128Z,6.40
2019-02-24T19:10:31.863Z,6.30
2019-02-24T19:13:01.626Z,6.50
2019-02-24T19:15:31.259Z,6.50
2019-02-24T19:18:01.141Z,6.40
2019-02-24T19:20:31.041Z,6.40
2019-02-24T19:23:00.779Z,6.40
2019-02-24T19:25:30.809Z,6.30
2019-02-24T19:28:00.488Z,6.30
2019-02-24T19:30:30.237Z,6.20
2019-02-24T19:33:00.022Z,6.20
2019-02-24T19:35:31.629Z,6.20
2019-02-24T19:38:01.772Z,6.30
2019-02-24T19:40:31.595Z,6.30
2019-02-24T19:43:01.386Z,6.20
2019-02-24T19:45:31.256Z,6.30
2019-02-24T19:48:00.872Z,6.30
2019-02-24T19:50:30.622Z,6.30
2019-02-24T19:53:03.507Z,6.30
2019-02-24T19:55:33.253Z,6.30
2019-02-24T19:58:03.003Z,6.20
2019-02-24T20:00:33.165Z,6.10
2019-02-24T20:03:02.693Z,6.20
2019-02-24T20:05:32.699Z,6.20
2019-02-24T20:08:02.290Z,6.20
2019-02-24T20:10:32.223Z,6.10
2019-02-24T20:13:02.253Z,6.20
2019-02-24T20:15:31.933Z,6.20
2019-02-24T20:18:01.640Z,6.10
2019-02-24T20:20:31.371Z,6.10
2019-02-24T20:23:01.272Z,6.10
2019-02-24T20:25:31.485Z,6.10
2019-02-24T20:28:01.359Z,6.20
2019-02-24T20:30:34.386Z,6.20
2019-02-24T20:33:04.241Z,6.10
2019-02-24T20:35:34.304Z,6.10
2019-02-24T20:38:04.109Z,6.00
2019-02-24T20:40:33.879Z,6.00
2019-02-24T20:43:05.557Z,6.00
2019-02-24T20:45:35.271Z,5.90
2019-02-24T20:48:05.990Z,5.90
2019-02-24T20:50:36.452Z,5.90
2019-02-24T20:53:06.371Z,5.90
2019-02-24T20:55:36.033Z,5.80
2019-02-24T20:58:06.052Z,5.70
2019-02-24T21:00:43.990Z,5.70
2019-02-24T21:03:13.969Z,5.70
2019-02-24T21:05:45.433Z,5.70
2019-02-24T21:08:15.870Z,5.70
2019-02-24T21:10:45.598Z,5.60
2019-02-24T21:13:16.859Z,5.60
2019-02-24T21:15:46.805Z,5.60
2019-02-24T21:18:16.740Z,5.70
2019-02-24T21:20:46.358Z,5.60
2019-02-24T21:23:16.140Z,5.50
2019-02-24T21:25:45.945Z,5.50
2019-02-24T21:28:16.065Z,5.50
2019-02-24T21:30:46.177Z,5.50
2019-02-24T21:33:15.984Z,5.50
2019-02-24T21:35:46.602Z,5.50
2019-02-24T21:38:16.805Z,5.50
2019-02-24T21:40:46.544Z,5.50
2019-02-24T21:43:16.367Z,5.50
2019-02-24T21:45:46.075Z,5.50
2019-02-24T21:48:15.920Z,5.50
2019-02-24T21:50:45.683Z,5.40
2019-02-24T21:53:15.315Z,5.50
2019-02-24T21:55:45.100Z,5.40
2019-02-24T21:58:14.895Z,5.40
2019-02-24T22:00:44.947Z,5.40
2019-02-24T22:03:14.514Z,5.40
2019-02-24T22:05:44.373Z,5.30
2019-02-24T22:08:14.191Z,5.20
2019-02-24T22:10:43.995Z,5.20
2019-02-24T22:13:13.666Z,5.20
2019-02-24T22:15:43.415Z,5.10
2019-02-24T22:18:13.081Z,5.20
2019-02-24T22:20:42.710Z,5.30
2019-02-24T22:23:12.397Z,5.30
2019-02-24T22:25:42.071Z,5.20
2019-02-24T22:28:11.805Z,5.10
2019-02-24T22:30:41.416Z,5.10
2019-02-24T22:33:11.296Z,5.00
2019-02-24T22:35:41.094Z,5.10
2019-02-24T22:38:11.015Z,5.10
2019-02-24T22:40:41.029Z,5.00
2019-02-24T22:43:10.753Z,5.00
2019-02-24T22:45:40.649Z,5.00
2019-02-24T22:48:10.407Z,5.00
2019-02-24T22:50:40.027Z,5.10
2019-02-24T22:53:09.827Z,5.10
2019-02-24T22:55:39.461Z,5.20
2019-02-24T22:58:09.354Z,5.10
2019-02-24T23:00:51.984Z,5.00
2019-02-24T23:03:24.223Z,4.90
2019-02-24T23:05:53.868Z,4.80
2019-02-24T23:08:24.411Z,4.80
2019-02-24T23:10:54.099Z,4.80
2019-02-24T23:13:23.801Z,4.70
2019-02-24T23:15:53.466Z,4.70
2019-02-24T23:18:23.095Z,4.60
2019-02-24T23:20:52.715Z,4.50
2019-02-24T23:23:22.461Z,4.60
2019-02-24T23:25:52.413Z,4.50
2019-02-24T23:28:22.442Z,4.50
2019-02-24T23:30:52.169Z,4.40
2019-02-24T23:33:21.818Z,4.40
2019-02-24T23:35:51.480Z,4.40
2019-02-24T23:38:21.270Z,4.40
2019-02-24T23:40:50.928Z,4.40
2019-02-24T23:43:20.661Z,4.40
2019-02-24T23:45:50.318Z,4.40
2019-02-24T23:48:20.039Z,4.40
2019-02-24T23:50:49.723Z,4.40
2019-02-24T23:53:19.509Z,4.40
2019-02-24T23:55:49.174Z,4.30
2019-02-24T23:58:18.919Z,4.30
